Time;durP1;ratioP1;P1;durP2;ratioP2;P2;SDS_P1;SDS_P2;PMS_P1;PMS_P2;Temp;Humidity;BMP_temperature;BMP_pressure;BME280_temperature;BME280_humidity;BME280_pressure;Samples;Min_cycle;Max_cycle;Signal;HPM_P1;HPM_P2
2022/11/14 00:01:45;;;;;;;39.53;22.75;;;6.70;99.90;;;;;;5091087;28;20492;-67
2022/11/14 00:04:12;;;;;;;39.90;23.45;;;6.70;99.90;;;;;;5090707;28;20052;-68
2022/11/14 00:06:40;;;;;;;39.78;22.38;;;6.70;99.90;;;;;;5091447;28;20047;-68
2022/11/14 00:09:07;;;;;;;37.78;22.23;;;6.70;99.90;;;;;;5092052;28;20055;-67
2022/11/14 00:11:34;;;;;;;45.28;23.98;;;6.70;99.90;;;;;;5089919;28;20089;-68
2022/11/14 00:14:01;;;;;;;36.90;21.90;;;6.80;99.90;;;;;;5090542;28;20047;-68
2022/11/14 00:16:27;;;;;;;36.20;21.90;;;6.80;99.90;;;;;;5090711;28;20537;-68
2022/11/14 00:18:54;;;;;;;35.33;21.10;;;6.70;99.90;;;;;;5091290;28;20487;-68
2022/11/14 00:21:21;;;;;;;37.72;21.00;;;6.70;99.90;;;;;;5089343;28;20056;-67
2022/11/14 00:23:49;;;;;;;35.15;20.17;;;6.80;99.90;;;;;;5090270;28;20487;-68
2022/11/14 00:26:16;;;;;;;33.38;20.38;;;6.80;99.90;;;;;;5090440;28;20051;-68
2022/11/14 00:28:43;;;;;;;32.28;19.65;;;6.80;99.90;;;;;;5088677;28;20048;-67
2022/11/14 00:31:10;;;;;;;35.33;20.55;;;6.80;99.90;;;;;;5087620;28;20117;-67
2022/11/14 00:33:38;;;;;;;37.17;21.13;;;6.80;99.90;;;;;;5090608;28;20059;-67
2022/11/14 00:36:05;;;;;;;36.53;21.10;;;6.80;99.90;;;;;;5089411;28;20082;-69
2022/11/14 00:38:32;;;;;;;34.88;20.65;;;6.80;99.90;;;;;;5091694;28;20384;-68
2022/11/14 00:41:00;;;;;;;33.88;19.35;;;6.80;99.90;;;;;;5092231;28;20059;-68
2022/11/14 00:43:27;;;;;;;33.33;20.08;;;6.80;99.90;;;;;;5095101;28;20056;-67
2022/11/14 00:45:54;;;;;;;35.65;20.58;;;6.90;99.90;;;;;;5094213;28;20048;-68
2022/11/14 00:48:21;;;;;;;31.77;18.92;;;6.90;99.90;;;;;;5095837;28;20047;-67
2022/11/14 00:50:48;;;;;;;33.05;20.40;;;6.90;99.90;;;;;;5094436;28;20052;-67
2022/11/14 00:53:15;;;;;;;33.25;20.08;;;6.90;99.90;;;;;;5094987;28;20127;-67
2022/11/14 00:55:43;;;;;;;35.88;20.38;;;6.90;99.90;;;;;;5094409;28;20048;-67
2022/11/14 00:58:11;;;;;;;32.00;20.02;;;7.00;99.90;;;;;;5095504;28;20055;-67
2022/11/14 01:00:38;;;;;;;34.17;20.48;;;7.00;99.90;;;;;;5094092;28;20047;-67
2022/11/14 01:03:05;;;;;;;39.05;21.45;;;6.90;99.90;;;;;;5093048;28;20040;-67
2022/11/14 01:05:32;;;;;;;36.40;21.35;;;7.00;99.90;;;;;;5094174;28;20056;-67
2022/11/14 01:07:59;;;;;;;35.75;21.17;;;7.00;99.90;;;;;;5095079;28;20047;-67
2022/11/14 01:10:25;;;;;;;36.60;22.13;;;7.00;99.90;;;;;;5095610;28;20503;-68
2022/11/14 01:12:52;;;;;;;37.28;22.38;;;7.00;99.90;;;;;;5094289;28;20051;-67
2022/11/14 01:15:20;;;;;;;37.05;21.67;;;7.00;99.90;;;;;;5094948;28;20047;-67
2022/11/14 01:17:47;;;;;;;36.63;21.63;;;7.00;99.90;;;;;;5093565;28;20105;-67
2022/11/14 01:20:15;;;;;;;34.92;21.45;;;7.00;99.90;;;;;;5093224;28;20052;-66
2022/11/14 01:22:42;;;;;;;37.00;22.05;;;7.00;99.90;;;;;;5094111;28;20052;-67
2022/11/14 01:25:09;;;;;;;38.40;23.15;;;7.00;99.90;;;;;;5093634;28;20491;-66
2022/11/14 01:27:36;;;;;;;40.60;24.45;;;7.10;99.90;;;;;;5093380;28;20040;-67
2022/11/14 01:30:03;;;;;;;40.38;24.17;;;7.00;99.90;;;;;;5092679;28;20510;-67
2022/11/14 01:32:31;;;;;;;39.97;24.58;;;7.00;99.90;;;;;;5093952;28;20052;-67
2022/11/14 01:34:58;;;;;;;41.55;25.05;;;7.00;99.90;;;;;;5092521;28;20051;-67
2022/11/14 01:37:25;;;;;;;41.47;23.73;;;7.00;99.90;;;;;;5093511;28;20048;-67
2022/11/14 01:39:52;;;;;;;41.13;25.23;;;7.00;99.90;;;;;;5095199;28;20071;-67
2022/11/14 01:42:18;;;;;;;39.17;24.40;;;7.00;99.90;;;;;;5090313;28;20059;-67
2022/11/14 01:44:48;;;;;;;42.78;25.27;;;7.00;99.90;;;;;;5093757;28;20044;-67
2022/11/14 01:47:20;;;;;;;42.35;24.23;;;7.00;99.90;;;;;;5093224;28;20059;-67
2022/11/14 01:49:53;;;;;;;43.63;25.58;;;6.90;99.90;;;;;;5090567;28;20055;-67
2022/11/14 01:52:23;;;;;;;43.00;25.75;;;6.80;99.90;;;;;;5093472;28;20144;-66
2022/11/14 01:54:52;;;;;;;47.57;23.90;;;6.80;99.90;;;;;;5092329;28;20048;-67
2022/11/14 01:57:24;;;;;;;41.95;25.40;;;6.70;99.90;;;;;;5091473;28;20649;-66
2022/11/14 01:59:55;;;;;;;39.53;24.70;;;6.70;99.90;;;;;;5094647;28;20048;-68
2022/11/14 02:02:23;;;;;;;;;;;6.70;99.90;;;;;;5092126;28;20040;-68
2022/11/14 02:04:57;;;;;;;39.75;23.20;;;6.70;99.90;;;;;;5093874;28;20063;-66
2022/11/14 02:07:27;;;;;;;45.08;26.90;;;6.70;99.90;;;;;;5092807;28;20066;-67
2022/11/14 02:09:54;;;;;;;45.33;28.33;;;6.60;99.90;;;;;;5091276;28;20044;-67
2022/11/14 02:12:23;;;;;;;48.03;28.30;;;6.60;99.90;;;;;;5092969;28;20055;-67
2022/11/14 02:14:54;;;;;;;47.22;27.38;;;6.60;99.90;;;;;;5094111;28;20059;-68
2022/11/14 02:17:21;;;;;;;43.83;26.67;;;6.70;99.90;;;;;;5093563;28;20393;-67
2022/11/14 02:19:53;;;;;;;50.88;29.60;;;6.60;99.90;;;;;;5092911;28;20048;-68
2022/11/14 02:22:21;;;;;;;41.40;26.95;;;6.60;99.90;;;;;;5093607;28;20059;-67
2022/11/14 02:24:48;;;;;;;52.38;28.45;;;6.60;99.90;;;;;;5091488;28;20150;-68
2022/11/14 02:27:16;;;;;;;46.05;28.42;;;6.50;99.90;;;;;;5092646;28;20430;-67
2022/11/14 02:29:43;;;;;;;51.78;28.02;;;6.60;99.90;;;;;;5092660;28;20044;-68
2022/11/14 02:32:10;;;;;;;45.53;27.42;;;6.60;99.90;;;;;;5091637;28;20051;-69
2022/11/14 02:34:37;;;;;;;49.05;27.52;;;6.50;99.90;;;;;;5093853;28;20399;-68
2022/11/14 02:37:04;;;;;;;50.20;28.60;;;6.50;99.90;;;;;;5090372;28;20533;-67
2022/11/14 02:39:32;;;;;;;48.20;27.73;;;6.50;99.90;;;;;;5091251;28;20059;-67
2022/11/14 02:41:59;;;;;;;54.78;30.48;;;6.50;99.90;;;;;;5092240;28;20052;-68
2022/11/14 02:44:26;;;;;;;50.22;31.02;;;6.50;99.90;;;;;;5091480;28;20044;-68
2022/11/14 02:46:53;;;;;;;49.70;28.58;;;6.50;99.90;;;;;;5089935;28;20059;-67
2022/11/14 02:49:20;;;;;;;53.80;29.65;;;6.60;99.90;;;;;;5089982;28;20442;-68
2022/11/14 02:51:47;;;;;;;48.65;27.40;;;6.60;99.90;;;;;;5091601;28;20082;-67
2022/11/14 02:54:13;;;;;;;46.53;27.75;;;6.60;99.90;;;;;;5093231;28;20059;-68
2022/11/14 02:56:42;;;;;;;51.50;29.10;;;6.60;99.90;;;;;;5092203;28;20056;-68
2022/11/14 02:59:09;;;;;;;47.35;27.35;;;6.70;99.90;;;;;;5091423;28;20556;-68
2022/11/14 03:01:35;;;;;;;50.65;28.20;;;6.70;99.90;;;;;;5091716;28;20510;-68
2022/11/14 03:04:02;;;;;;;53.15;29.05;;;6.80;99.90;;;;;;5091767;28;20714;-68
2022/11/14 03:06:29;;;;;;;52.20;29.20;;;6.70;99.90;;;;;;5091313;28;20055;-68
2022/11/14 03:08:56;;;;;;;52.63;29.35;;;6.80;99.90;;;;;;5089275;28;20097;-68
2022/11/14 03:11:23;;;;;;;50.80;31.25;;;6.80;99.90;;;;;;5091242;28;20048;-67
2022/11/14 03:13:51;;;;;;;52.00;28.40;;;6.80;99.90;;;;;;5090705;28;20051;-67
2022/11/14 03:16:18;;;;;;;53.70;29.10;;;6.80;99.90;;;;;;5092802;28;20040;-67
2022/11/14 03:18:45;;;;;;;51.55;29.27;;;6.80;99.90;;;;;;5092573;28;20499;-67
2022/11/14 03:21:14;;;;;;;47.97;28.25;;;6.80;99.90;;;;;;5090976;28;20426;-66
2022/11/14 03:23:41;;;;;;;53.17;29.80;;;6.80;99.90;;;;;;5091621;28;20502;-66
2022/11/14 03:26:10;;;;;;;50.08;29.65;;;6.80;99.90;;;;;;5091517;28;20052;-67
2022/11/14 03:28:38;;;;;;;50.85;30.85;;;6.90;99.90;;;;;;5092320;28;20117;-67
2022/11/14 03:31:07;;;;;;;53.30;30.73;;;6.90;99.90;;;;;;5090844;28;20043;-67
2022/11/14 03:33:35;;;;;;;52.28;30.08;;;6.90;99.90;;;;;;5091406;28;20048;-67
2022/11/14 03:36:02;;;;;;;50.70;30.00;;;6.90;99.90;;;;;;5091407;28;20051;-68
2022/11/14 03:38:29;;;;;;;47.53;28.13;;;6.90;99.90;;;;;;5090340;28;20747;-68
2022/11/14 03:40:58;;;;;;;50.55;29.92;;;6.90;99.90;;;;;;5090292;28;20048;-67
2022/11/14 03:43:26;;;;;;;52.60;30.55;;;6.90;99.90;;;;;;5092333;28;20454;-68
2022/11/14 03:45:52;;;;;;;55.38;30.52;;;6.90;99.90;;;;;;5091359;28;20522;-67
2022/11/14 03:48:21;;;;;;;51.13;30.50;;;6.90;99.90;;;;;;5091211;28;20048;-67
2022/11/14 03:50:48;;;;;;;52.97;30.33;;;6.90;99.90;;;;;;5090972;28;20048;-68
2022/11/14 03:53:14;;;;;;;50.03;28.60;;;6.90;99.90;;;;;;5088154;28;20105;-68
2022/11/14 03:55:43;;;;;;;47.03;29.20;;;6.90;99.90;;;;;;5088022;28;21267;-67
2022/11/14 03:58:10;;;;;;;43.67;27.48;;;6.90;99.90;;;;;;5091048;28;20047;-68
2022/11/14 04:00:37;;;;;;;49.25;28.48;;;7.00;99.90;;;;;;5090852;28;20044;-67
2022/11/14 04:03:04;;;;;;;48.30;29.75;;;6.90;99.90;;;;;;5091726;28;20040;-67
2022/11/14 04:05:32;;;;;;;47.05;28.75;;;6.90;99.90;;;;;;5090862;28;20052;-68
2022/11/14 04:07:59;;;;;;;45.88;28.02;;;6.90;99.90;;;;;;5090866;28;20048;-67
2022/11/14 04:10:26;;;;;;;47.85;27.85;;;6.90;99.90;;;;;;5087324;28;20067;-68
2022/11/14 04:12:54;;;;;;;47.03;28.45;;;6.90;99.90;;;;;;5090327;28;20117;-67
2022/11/14 04:15:21;;;;;;;47.35;29.83;;;6.90;99.90;;;;;;5090602;28;20492;-68
2022/11/14 04:17:48;;;;;;;48.42;29.25;;;6.90;99.90;;;;;;5090728;28;20508;-68
2022/11/14 04:20:15;;;;;;;51.33;28.42;;;6.90;99.90;;;;;;5090550;28;20047;-67
2022/11/14 04:22:43;;;;;;;53.22;30.17;;;6.90;99.90;;;;;;5090394;28;20056;-68
2022/11/14 04:25:10;;;;;;;48.63;29.23;;;6.90;99.90;;;;;;5090208;28;20059;-67
2022/11/14 04:27:37;;;;;;;44.28;27.83;;;6.90;99.90;;;;;;5090516;28;20488;-67
2022/11/14 04:30:05;;;;;;;42.90;25.52;;;6.90;99.90;;;;;;5090149;28;20044;-66
2022/11/14 04:32:32;;;;;;;45.80;26.55;;;6.90;99.90;;;;;;5088009;28;20101;-67
2022/11/14 04:34:59;;;;;;;41.47;26.15;;;6.90;99.90;;;;;;5090925;28;20051;-69
2022/11/14 04:37:26;;;;;;;42.30;24.23;;;6.90;99.90;;;;;;5089755;28;20043;-67
2022/11/14 04:39:57;;;;;;;41.60;25.10;;;6.90;99.90;;;;;;5090365;28;20056;-67
2022/11/14 04:42:24;;;;;;;44.38;25.55;;;6.80;99.90;;;;;;5090264;28;20048;-68
2022/11/14 04:44:51;;;;;;;50.45;26.70;;;6.80;99.90;;;;;;5091398;28;20160;-69
2022/11/14 04:47:18;;;;;;;41.70;24.67;;;6.80;99.90;;;;;;5090755;28;20044;-67
2022/11/14 04:49:45;;;;;;;42.20;26.42;;;6.80;99.90;;;;;;5090544;28;20105;-68
2022/11/14 04:52:12;;;;;;;42.05;25.15;;;6.80;99.90;;;;;;5088510;28;20526;-69
2022/11/14 04:54:39;;;;;;;44.22;25.55;;;6.80;99.90;;;;;;5089556;28;20044;-67
2022/11/14 04:57:07;;;;;;;42.03;24.20;;;6.80;99.90;;;;;;5088243;28;20052;-67
2022/11/14 04:59:34;;;;;;;44.38;25.13;;;6.70;99.90;;;;;;5089870;28;20055;-68
2022/11/14 05:02:01;;;;;;;39.67;24.02;;;6.80;99.90;;;;;;5089680;28;20079;-68
2022/11/14 05:04:28;;;;;;;39.45;23.50;;;6.80;99.90;;;;;;5091745;28;20097;-68
2022/11/14 05:06:55;;;;;;;38.67;24.35;;;6.80;99.90;;;;;;5091189;28;20044;-67
2022/11/14 05:09:22;;;;;;;40.88;24.45;;;6.70;99.90;;;;;;5091817;28;20063;-67
2022/11/14 05:11:48;;;;;;;34.83;22.05;;;6.70;99.90;;;;;;5090642;28;20063;-67
2022/11/14 05:14:17;;;;;;;41.42;23.88;;;6.80;99.90;;;;;;5090945;28;20047;-67
2022/11/14 05:16:44;;;;;;;41.28;23.50;;;6.70;99.90;;;;;;5090235;28;20048;-67
2022/11/14 05:19:10;;;;;;;42.00;24.20;;;6.70;99.90;;;;;;5089512;28;20048;-66
2022/11/14 05:21:37;;;;;;;40.85;25.05;;;6.70;99.90;;;;;;5089277;28;20442;-67
2022/11/14 05:24:04;;;;;;;38.58;23.30;;;6.60;99.90;;;;;;5089987;28;20064;-67
2022/11/14 05:26:31;;;;;;;37.78;23.38;;;6.70;99.90;;;;;;5090334;28;20048;-67
2022/11/14 05:28:58;;;;;;;45.17;26.15;;;6.70;99.90;;;;;;5093881;28;20060;-67
2022/11/14 05:31:26;;;;;;;44.15;25.70;;;6.70;99.90;;;;;;5093356;28;20047;-65
2022/11/14 05:33:53;;;;;;;44.20;25.48;;;6.70;99.90;;;;;;5094240;28;20051;-68
2022/11/14 05:36:20;;;;;;;42.97;25.13;;;6.60;99.90;;;;;;5093360;28;20055;-67
2022/11/14 05:38:47;;;;;;;44.28;25.15;;;6.70;99.90;;;;;;5091346;28;20519;-67
2022/11/14 05:41:15;;;;;;;44.30;26.25;;;6.70;99.90;;;;;;5088506;28;20056;-67
2022/11/14 05:43:43;;;;;;;45.22;24.77;;;6.60;99.90;;;;;;5092457;28;20052;-68
2022/11/14 05:46:12;;;;;;;40.25;23.85;;;6.60;99.90;;;;;;5094202;28;20503;-67
2022/11/14 05:48:40;;;;;;;42.30;25.25;;;6.70;99.90;;;;;;5078776;28;20048;-67
2022/11/14 05:51:10;;;;;;;39.85;22.13;;;6.70;99.90;;;;;;5081022;28;20051;-67
2022/11/14 05:53:37;;;;;;;43.90;24.77;;;6.50;99.90;;;;;;5085634;28;20052;-65
2022/11/14 05:56:06;;;;;;;39.30;23.52;;;6.50;99.90;;;;;;5088140;28;20043;-66
2022/11/14 05:58:34;;;;;;;44.03;23.88;;;6.40;99.90;;;;;;5083076;28;20052;-67
2022/11/14 06:01:06;;;;;;;43.53;25.23;;;6.40;99.90;;;;;;5086348;28;20397;-65
2022/11/14 06:03:34;;;;;;;51.17;25.88;;;6.40;99.90;;;;;;5082374;28;20053;-66
2022/11/14 06:06:04;;;;;;;44.30;26.55;;;6.40;99.90;;;;;;5085631;28;20508;-66
2022/11/14 06:08:31;;;;;;;;;;;6.40;99.90;;;;;;5083289;28;20056;-66
2022/11/14 06:11:03;;;;;;;46.92;25.50;;;6.40;99.90;;;;;;5088974;28;20643;-66
2022/11/14 06:13:30;;;;;;;45.03;27.23;;;6.40;99.90;;;;;;5089796;28;20106;-66
2022/11/14 06:15:59;;;;;;;45.75;26.65;;;6.40;99.90;;;;;;5082439;28;20145;-67
2022/11/14 06:18:26;;;;;;;43.28;24.80;;;6.40;99.90;;;;;;5087696;28;20139;-67
2022/11/14 06:20:53;;;;;;;44.97;24.75;;;6.40;99.90;;;;;;5089189;28;20067;-66
2022/11/14 06:23:21;;;;;;;43.72;25.27;;;6.40;99.90;;;;;;5087935;28;20063;-65
2022/11/14 06:25:48;;;;;;;42.08;25.10;;;6.40;99.90;;;;;;5081665;28;20048;-65
2022/11/14 06:28:15;;;;;;;44.78;26.00;;;6.30;99.90;;;;;;5081347;28;20044;-68
2022/11/14 06:30:42;;;;;;;40.58;24.85;;;6.30;99.90;;;;;;5081741;28;20047;-67
2022/11/14 06:33:09;;;;;;;41.15;23.58;;;6.30;99.90;;;;;;5090340;28;20455;-67
2022/11/14 06:35:35;;;;;;;41.83;24.95;;;6.40;99.90;;;;;;5082037;28;20492;-66
2022/11/14 06:38:02;;;;;;;44.17;25.73;;;6.30;99.90;;;;;;5080315;28;20051;-67
2022/11/14 06:40:31;;;;;;;49.95;27.15;;;6.30;99.90;;;;;;5087591;28;20043;-66
2022/11/14 06:42:57;;;;;;;45.28;26.35;;;6.30;99.90;;;;;;5088236;28;20063;-68
2022/11/14 06:45:24;;;;;;;45.47;26.88;;;6.30;99.90;;;;;;5079993;28;20060;-68
2022/11/14 06:47:51;;;;;;;46.78;25.63;;;6.30;99.90;;;;;;5084641;28;20055;-67
2022/11/14 06:50:18;;;;;;;47.47;25.40;;;6.30;99.90;;;;;;5080918;28;20097;-68
2022/11/14 06:52:45;;;;;;;45.15;25.33;;;6.30;99.90;;;;;;5082067;28;20054;-67
2022/11/14 06:55:12;;;;;;;47.50;25.38;;;6.30;99.90;;;;;;5088332;28;20101;-67
2022/11/14 06:57:40;;;;;;;45.47;26.58;;;6.30;99.90;;;;;;5082355;28;20081;-67
2022/11/14 07:00:08;;;;;;;47.72;26.15;;;6.30;99.90;;;;;;5088079;28;20056;-65
2022/11/14 07:02:35;;;;;;;47.47;27.05;;;6.30;99.90;;;;;;5087945;28;20117;-67
2022/11/14 07:05:02;;;;;;;46.08;25.02;;;6.20;99.90;;;;;;5077866;28;20078;-68
2022/11/14 07:07:29;;;;;;;43.08;23.88;;;6.30;99.90;;;;;;5079070;28;20044;-68
2022/11/14 07:09:57;;;;;;;46.55;26.25;;;6.20;99.90;;;;;;5082487;28;20055;-68
2022/11/14 07:12:24;;;;;;;48.20;24.90;;;6.20;99.90;;;;;;5086400;28;20484;-69
2022/11/14 07:14:52;;;;;;;42.08;25.17;;;6.20;99.90;;;;;;5079784;28;20056;-68
2022/11/14 07:17:19;;;;;;;42.38;24.20;;;6.20;99.90;;;;;;5084610;28;20051;-68
2022/11/14 07:19:46;;;;;;;44.25;25.25;;;6.10;99.90;;;;;;5085282;28;20047;-68
2022/11/14 07:22:13;;;;;;;43.63;25.73;;;6.10;99.90;;;;;;5085864;28;20043;-68
2022/11/14 07:24:40;;;;;;;48.83;26.40;;;6.00;99.90;;;;;;5087903;28;20418;-67
2022/11/14 07:27:08;;;;;;;45.88;27.00;;;6.00;99.90;;;;;;5078149;28;20052;-69
2022/11/14 07:29:34;;;;;;;45.03;26.25;;;6.00;99.90;;;;;;5084638;28;20423;-67
2022/11/14 07:32:03;;;;;;;47.17;25.92;;;6.00;99.90;;;;;;5077603;28;20836;-66
2022/11/14 07:34:30;;;;;;;48.28;25.45;;;6.00;99.90;;;;;;5085018;28;20047;-67
2022/11/14 07:36:56;;;;;;;52.17;27.27;;;6.10;99.90;;;;;;5084237;28;20454;-66
2022/11/14 07:39:23;;;;;;;48.95;26.60;;;6.00;99.90;;;;;;5080692;28;20447;-67
2022/11/14 07:41:50;;;;;;;44.95;26.30;;;6.00;99.90;;;;;;5081949;28;20450;-67
2022/11/14 07:44:17;;;;;;;44.75;26.70;;;6.00;99.90;;;;;;5086451;28;20063;-66
2022/11/14 07:46:44;;;;;;;48.05;27.02;;;6.00;99.90;;;;;;5086805;28;20044;-66
2022/11/14 07:49:12;;;;;;;44.88;25.58;;;6.00;99.90;;;;;;5081215;28;20044;-67
2022/11/14 07:51:39;;;;;;;45.25;25.90;;;6.00;99.90;;;;;;5082052;28;20480;-68
2022/11/14 07:54:06;;;;;;;45.60;25.48;;;6.00;99.90;;;;;;5083789;28;20739;-67
2022/11/14 07:56:33;;;;;;;46.50;26.25;;;6.00;99.90;;;;;;5081964;28;20044;-67
2022/11/14 07:58:59;;;;;;;42.58;25.88;;;6.00;99.90;;;;;;5086104;28;20049;-67
2022/11/14 08:01:27;;;;;;;50.38;26.70;;;6.00;99.90;;;;;;5080430;28;20048;-68
2022/11/14 08:03:54;;;;;;;42.53;24.55;;;6.00;99.90;;;;;;5087433;28;20052;-66
2022/11/14 08:21:51;;;;;;;43.70;24.85;;;6.20;99.90;;;;;;5092088;28;20027;-66
2022/11/14 08:24:19;;;;;;;39.67;23.77;;;6.20;99.90;;;;;;5087827;28;20055;-66
2022/11/14 08:26:46;;;;;;;46.65;25.10;;;6.20;99.90;;;;;;5088701;28;20048;-67
2022/11/14 08:29:13;;;;;;;42.90;24.48;;;6.20;99.90;;;;;;5090081;28;20093;-67
2022/11/14 08:31:40;;;;;;;48.88;24.27;;;6.20;99.90;;;;;;5090286;28;20048;-66
2022/11/14 08:34:07;;;;;;;43.00;24.63;;;6.30;99.90;;;;;;5092107;28;20059;-66
2022/11/14 08:36:34;;;;;;;44.25;25.15;;;6.30;99.90;;;;;;5090006;28;20059;-66
2022/11/14 08:39:01;;;;;;;46.90;26.15;;;6.30;99.90;;;;;;5090057;28;20063;-67
2022/11/14 08:41:29;;;;;;;50.47;27.38;;;6.30;99.90;;;;;;5091503;28;20059;-67
2022/11/14 08:43:56;;;;;;;48.45;25.55;;;6.40;99.90;;;;;;5086952;28;20071;-67
2022/11/14 08:46:23;;;;;;;54.65;26.52;;;6.40;99.90;;;;;;5089409;28;20055;-66
2022/11/14 08:48:49;;;;;;;45.60;25.35;;;6.50;99.90;;;;;;5090649;28;20098;-66
2022/11/14 08:51:16;;;;;;;46.45;27.65;;;6.60;99.90;;;;;;5089755;28;20102;-67
2022/11/14 08:53:43;;;;;;;43.63;24.55;;;6.70;99.90;;;;;;5090565;28;20047;-67
2022/11/14 08:56:11;;;;;;;41.70;24.58;;;6.70;99.90;;;;;;5091325;28;20040;-67
2022/11/14 08:58:39;;;;;;;38.97;25.00;;;6.70;99.90;;;;;;5087555;28;20060;-66
2022/11/14 09:01:07;;;;;;;42.75;24.20;;;6.70;99.90;;;;;;5090858;28;20055;-67
2022/11/14 09:03:34;;;;;;;44.22;26.05;;;6.70;99.90;;;;;;5094476;28;20048;-67
2022/11/14 09:06:02;;;;;;;43.72;25.52;;;6.70;99.90;;;;;;5094925;28;20044;-66
2022/11/14 09:08:29;;;;;;;42.85;25.27;;;6.70;99.90;;;;;;5094324;28;20055;-67
2022/11/14 09:11:00;;;;;;;45.35;24.90;;;6.80;99.90;;;;;;5094020;28;20067;-66
2022/11/14 09:13:27;;;;;;;41.47;25.00;;;6.80;99.90;;;;;;5093860;28;20097;-66
2022/11/14 09:15:55;;;;;;;38.70;23.50;;;6.90;99.90;;;;;;5094830;28;20445;-66
2022/11/14 09:18:22;;;;;;;41.22;24.38;;;7.00;99.90;;;;;;5094284;28;20060;-66
2022/11/14 09:20:49;;;;;;;42.33;24.98;;;6.90;99.90;;;;;;5093817;28;20411;-66
2022/11/14 09:23:16;;;;;;;43.53;26.17;;;6.90;99.90;;;;;;5094025;28;20494;-66
2022/11/14 09:25:43;;;;;;;47.95;25.17;;;7.00;99.90;;;;;;5093574;28;20602;-67
2022/11/14 09:28:10;;;;;;;41.97;24.85;;;7.10;99.90;;;;;;5094601;28;20055;-67
2022/11/14 09:30:39;;;;;;;40.53;23.75;;;7.30;99.90;;;;;;5091648;28;20105;-67
2022/11/14 09:33:07;;;;;;;46.72;25.92;;;7.50;99.90;;;;;;5092249;28;20086;-66
2022/11/14 09:35:35;;;;;;;40.42;24.90;;;7.70;99.90;;;;;;5093823;28;20442;-66
2022/11/14 09:38:03;;;;;;;41.90;23.10;;;7.90;99.90;;;;;;5094755;28;20380;-66
2022/11/14 09:40:33;;;;;;;40.72;25.00;;;8.20;99.90;;;;;;5093702;28;20062;-67
2022/11/14 09:43:12;;;;;;;39.25;22.98;;;8.80;99.90;;;;;;5092443;28;20047;-67
2022/11/14 09:45:44;;;;;;;37.75;23.98;;;9.30;99.90;;;;;;5095089;28;20060;-66
2022/11/14 09:48:24;;;;;;;37.95;23.55;;;9.50;99.90;;;;;;5092547;28;20048;-67
2022/11/14 09:51:04;;;;;;;39.15;23.20;;;9.40;99.90;;;;;;5094848;28;20052;-67
2022/11/14 09:53:37;;;;;;;40.13;23.85;;;9.30;99.90;;;;;;5093539;28;20047;-65
2022/11/14 09:56:03;;;;;;;41.20;25.40;;;9.00;99.90;;;;;;5092124;28;20040;-67
2022/11/14 09:58:30;;;;;;;40.13;23.10;;;9.10;99.90;;;;;;5093117;28;20044;-67
2022/11/14 10:01:05;;;;;;;42.30;24.35;;;9.30;99.90;;;;;;5092286;28;20047;-67
2022/11/14 10:03:46;;;;;;;36.15;23.23;;;9.20;99.90;;;;;;5092497;28;20048;-65
2022/11/14 10:06:24;;;;;;;40.58;24.40;;;8.90;99.90;;;;;;5089947;28;20055;-67
2022/11/14 10:09:20;;;;;;;34.97;22.45;;;8.60;99.90;;;;;;5091366;28;20055;-67
2022/11/14 10:11:54;;;;;;;33.92;22.33;;;8.30;99.90;;;;;;5092878;28;20085;-67
2022/11/14 10:14:53;;;;;;;37.45;22.08;;;8.20;99.90;;;;;;5092855;28;20063;-66
2022/11/14 10:17:36;;;;;;;36.72;23.13;;;8.50;99.90;;;;;;5093868;28;20105;-67
2022/11/14 10:20:15;;;;;;;35.50;22.05;;;8.90;99.90;;;;;;5093776;28;20052;-67
2022/11/14 10:23:01;;;;;;;33.40;20.00;;;9.00;99.90;;;;;;5091987;28;20048;-67
2022/11/14 10:25:32;;;;;;;32.05;21.98;;;9.40;99.90;;;;;;5092204;28;20483;-66
2022/11/14 10:28:17;;;;;;;33.03;21.10;;;9.80;99.90;;;;;;5093641;28;20051;-68
2022/11/14 10:30:51;;;;;;;35.58;22.00;;;10.10;99.90;;;;;;5091348;28;20533;-66
2022/11/14 10:33:29;;;;;;;39.40;23.58;;;10.80;99.90;;;;;;5077294;28;20052;-66
2022/11/14 10:36:05;;;;;;;32.42;21.88;;;10.90;99.90;;;;;;5081795;28;20577;-67
2022/11/14 10:38:37;;;;;;;35.70;21.85;;;10.80;99.90;;;;;;5084666;28;20528;-68
2022/11/14 10:41:06;;;;;;;34.78;22.23;;;10.50;99.90;;;;;;5089787;28;20063;-66
2022/11/14 10:43:37;;;;;;;37.22;23.58;;;10.30;99.90;;;;;;5083509;28;20515;-67
2022/11/14 10:46:09;;;;;;;33.90;21.50;;;10.30;99.90;;;;;;5083335;28;20039;-66
2022/11/14 10:48:40;;;;;;;34.20;21.27;;;10.50;99.90;;;;;;5087107;28;20403;-67
2022/11/14 10:51:18;;;;;;;30.98;20.63;;;10.70;99.90;;;;;;5090403;28;20419;-67
2022/11/14 10:53:51;;;;;;;36.10;22.65;;;11.90;99.90;;;;;;5086932;28;20044;-66
2022/11/14 10:56:18;;;;;;;32.90;22.52;;;13.40;99.90;;;;;;5082458;28;20039;-67
2022/11/14 10:58:45;;;;;;;30.38;20.25;;;14.90;99.90;;;;;;5087302;28;20048;-67
2022/11/14 11:01:33;;;;;;;28.35;20.60;;;15.30;99.90;;;;;;5087130;28;20054;-67
2022/11/14 11:04:12;;;;;;;28.63;20.80;;;14.50;99.90;;;;;;5092938;28;20078;-68
2022/11/14 11:06:40;;;;;;;32.22;20.60;;;13.30;99.90;;;;;;5086420;28;20105;-67
2022/11/14 11:11:56;;;;;;;31.50;20.70;;;11.20;99.90;;;;;;5080969;28;20044;-67
2022/11/14 11:14:23;;;;;;;32.70;21.55;;;10.60;99.90;;;;;;5085535;28;20170;-67
2022/11/14 11:17:07;;;;;;;29.70;20.02;;;10.30;99.90;;;;;;5082687;28;20668;-68
2022/11/14 11:19:33;;;;;;;32.50;20.65;;;10.10;99.90;;;;;;5079983;28;20056;-68
2022/11/14 11:22:02;;;;;;;32.30;21.05;;;9.80;99.90;;;;;;5082165;28;20516;-67
2022/11/14 11:24:34;;;;;;;35.45;21.77;;;9.50;99.90;;;;;;5083944;28;20048;-67
2022/11/14 11:27:15;;;;;;;31.83;21.17;;;9.40;99.90;;;;;;5085096;28;20052;-66
2022/11/14 11:29:42;;;;;;;30.80;20.67;;;9.20;99.90;;;;;;5088399;28;20055;-66
2022/11/14 11:32:09;;;;;;;36.10;21.73;;;9.10;99.90;;;;;;5080687;28;20494;-66
2022/11/14 11:34:36;;;;;;;32.10;20.50;;;9.20;99.90;;;;;;5084009;28;20131;-66
2022/11/14 11:37:15;;;;;;;31.25;20.63;;;9.50;99.90;;;;;;5081989;28;20064;-67
2022/11/14 11:39:49;;;;;;;33.58;21.05;;;10.00;99.90;;;;;;5081840;28;20102;-66
2022/11/14 11:42:20;;;;;;;34.95;21.75;;;10.70;99.90;;;;;;5083992;28;20048;-66
2022/11/14 11:44:53;;;;;;;33.25;20.60;;;11.30;99.90;;;;;;5089629;28;20052;-67
2022/11/14 11:47:22;;;;;;;29.17;19.40;;;11.70;99.90;;;;;;5084001;28;20040;-67
2022/11/14 11:49:50;;;;;;;32.78;20.75;;;12.30;99.90;;;;;;5083315;28;20052;-66
2022/11/14 11:52:30;;;;;;;30.77;21.13;;;13.30;99.90;;;;;;5084695;28;20060;-67
2022/11/14 11:55:02;;;;;;;32.60;21.15;;;13.50;99.90;;;;;;5085263;28;20052;-68
2022/11/14 11:57:35;;;;;;;32.03;21.17;;;13.90;99.90;;;;;;5084053;28;20556;-66
2022/11/14 12:00:14;;;;;;;29.67;20.45;;;13.90;99.90;;;;;;5090061;28;20048;-66
2022/11/14 12:02:44;;;;;;;31.40;20.65;;;13.20;99.90;;;;;;5085807;28;20052;-66
2022/11/14 12:05:15;;;;;;;31.42;21.33;;;13.00;99.90;;;;;;5086147;28;20491;-67
2022/11/14 12:07:50;;;;;;;31.35;20.42;;;12.90;99.90;;;;;;5083627;28;20135;-66
2022/11/14 12:10:22;;;;;;;29.20;19.95;;;13.20;99.90;;;;;;5083067;28;20105;-66
2022/11/14 12:13:21;;;;;;;30.00;19.27;;;13.30;99.90;;;;;;5083991;28;20046;-65
2022/11/14 12:15:58;;;;;;;25.20;17.75;;;14.10;99.90;;;;;;5083386;28;20380;-65
2022/11/14 12:18:47;;;;;;;29.70;19.85;;;14.80;99.90;;;;;;5083677;28;20055;-66
2022/11/14 12:21:31;;;;;;;28.23;19.23;;;14.70;99.90;;;;;;5088653;28;20052;-66
2022/11/14 12:24:20;;;;;;;27.02;19.17;;;14.80;99.90;;;;;;5085640;28;20085;-66
2022/11/14 12:26:59;;;;;;;24.73;18.15;;;14.70;99.90;;;;;;5082463;28;20052;-66
2022/11/14 12:29:52;;;;;;;27.90;18.38;;;15.30;99.90;;;;;;5082833;28;20055;-68
2022/11/14 12:32:28;;;;;;;26.38;18.48;;;15.20;99.90;;;;;;5086325;28;20043;-67
2022/11/14 12:34:55;;;;;;;27.88;18.88;;;15.70;99.90;;;;;;5087062;28;20125;-67
2022/11/14 12:37:28;;;;;;;25.98;18.15;;;15.80;99.90;;;;;;5085561;28;20048;-67
2022/11/14 12:39:59;;;;;;;26.27;18.27;;;15.90;99.90;;;;;;5091568;28;20052;-67
2022/11/14 12:42:26;;;;;;;27.45;19.98;;;16.30;99.90;;;;;;5087003;28;20048;-67
2022/11/14 12:44:53;;;;;;;26.52;18.55;;;16.30;99.50;;;;;;5083749;28;20066;-66
2022/11/14 12:47:22;;;;;;;28.15;17.80;;;16.40;99.90;;;;;;5048757;28;22830;-65
2022/11/14 12:50:05;;;;;;;25.80;18.35;;;16.30;99.90;;;;;;5087358;28;20055;-66
2022/11/14 12:52:45;;;;;;;27.23;19.00;;;16.30;98.90;;;;;;5086656;28;20079;-66
2022/11/14 12:55:57;;;;;;;23.30;17.30;;;16.30;99.10;;;;;;5088075;28;20070;-67
2022/11/14 12:58:44;;;;;;;28.38;18.45;;;16.30;99.00;;;;;;5088991;28;20090;-67
2022/11/14 13:01:27;;;;;;;26.38;17.50;;;16.40;99.20;;;;;;5087143;28;20044;-67
2022/11/14 13:04:10;;;;;;;26.20;17.67;;;16.50;98.30;;;;;;5091149;28;20889;-66
2022/11/14 13:06:45;;;;;;;27.48;19.83;;;16.50;98.70;;;;;;5088311;28;20074;-66